sensor_id;sensor_type;location;lat;lon;timestamp;pressure;altitude;pressure_sealevel;temperature;humidity
75681;BME280;64294;49.176;16.626;2024-01-30T00:00:07;101265.69;;;1.12;87.46
75681;BME280;64294;49.176;16.626;2024-01-30T00:02:33;101256.88;;;1.17;87.88
75681;BME280;64294;49.176;16.626;2024-01-30T00:04:59;101255.50;;;1.05;87.88
75681;BME280;64294;49.176;16.626;2024-01-30T00:07:24;101258.44;;;1.18;86.96
75681;BME280;64294;49.176;16.626;2024-01-30T00:09:50;101251.09;;;1.08;87.07
75681;BME280;64294;49.176;16.626;2024-01-30T00:12:16;101257.38;;;1.12;88.03
75681;BME280;64294;49.176;16.626;2024-01-30T00:14:45;101260.84;;;1.16;88.19
75681;BME280;64294;49.176;16.626;2024-01-30T00:17:13;101260.41;;;1.17;88.17
75681;BME280;64294;49.176;16.626;2024-01-30T00:19:39;101260.78;;;1.19;88.18
75681;BME280;64294;49.176;16.626;2024-01-30T00:22:05;101262.31;;;1.20;86.93
75681;BME280;64294;49.176;16.626;2024-01-30T00:24:30;101264.66;;;1.22;87.29
75681;BME280;64294;49.176;16.626;2024-01-30T00:26:55;101255.16;;;1.23;86.75
75681;BME280;64294;49.176;16.626;2024-01-30T00:29:21;101255.66;;;1.18;87.87
75681;BME280;64294;49.176;16.626;2024-01-30T00:31:50;101257.66;;;1.17;87.61
75681;BME280;64294;49.176;16.626;2024-01-30T00:34:16;101256.88;;;1.17;87.79
75681;BME280;64294;49.176;16.626;2024-01-30T00:36:41;101264.13;;;1.31;87.05
75681;BME280;64294;49.176;16.626;2024-01-30T00:39:06;101260.19;;;1.28;86.22
75681;BME280;64294;49.176;16.626;2024-01-30T00:41:34;101268.50;;;1.28;85.38
75681;BME280;64294;49.176;16.626;2024-01-30T00:43:59;101259.06;;;1.26;85.58
75681;BME280;64294;49.176;16.626;2024-01-30T00:46:25;101262.41;;;1.17;86.27
75681;BME280;64294;49.176;16.626;2024-01-30T00:48:50;101263.19;;;1.17;85.96
75681;BME280;64294;49.176;16.626;2024-01-30T00:51:19;101259.28;;;1.15;85.74
75681;BME280;64294;49.176;16.626;2024-01-30T00:53:47;101258.19;;;1.09;86.06
75681;BME280;64294;49.176;16.626;2024-01-30T00:56:12;101256.34;;;1.02;86.89
75681;BME280;64294;49.176;16.626;2024-01-30T00:58:38;101256.19;;;0.89;87.33
75681;BME280;64294;49.176;16.626;2024-01-30T01:01:04;101247.97;;;1.06;86.18
75681;BME280;64294;49.176;16.626;2024-01-30T01:03:29;101240.59;;;0.99;86.50
75681;BME280;64294;49.176;16.626;2024-01-30T01:05:54;101243.72;;;1.21;88.02
75681;BME280;64294;49.176;16.626;2024-01-30T01:08:20;101234.81;;;1.10;87.21
75681;BME280;64294;49.176;16.626;2024-01-30T01:10:48;101236.25;;;1.38;88.88
75681;BME280;64294;49.176;16.626;2024-01-30T01:13:13;101230.00;;;1.54;91.42
75681;BME280;64294;49.176;16.626;2024-01-30T01:15:39;101236.06;;;1.65;90.78
75681;BME280;64294;49.176;16.626;2024-01-30T01:18:10;101228.56;;;1.45;91.24
75681;BME280;64294;49.176;16.626;2024-01-30T01:20:36;101231.31;;;1.65;92.95
75681;BME280;64294;49.176;16.626;2024-01-30T01:23:01;101228.91;;;1.83;90.95
75681;BME280;64294;49.176;16.626;2024-01-30T01:25:26;101236.75;;;1.89;89.66
75681;BME280;64294;49.176;16.626;2024-01-30T01:27:52;101224.34;;;1.93;87.84
75681;BME280;64294;49.176;16.626;2024-01-30T01:30:18;101225.00;;;1.81;87.25
75681;BME280;64294;49.176;16.626;2024-01-30T01:32:50;101223.28;;;1.71;86.61
75681;BME280;64294;49.176;16.626;2024-01-30T01:35:21;101226.00;;;1.55;85.99
75681;BME280;64294;49.176;16.626;2024-01-30T01:37:46;101236.53;;;1.43;85.26
75681;BME280;64294;49.176;16.626;2024-01-30T01:40:11;101226.31;;;1.40;84.96
75681;BME280;64294;49.176;16.626;2024-01-30T01:42:37;101232.00;;;1.13;85.45
75681;BME280;64294;49.176;16.626;2024-01-30T01:45:04;101229.25;;;1.13;86.51
75681;BME280;64294;49.176;16.626;2024-01-30T01:47:30;101230.47;;;1.12;86.31
75681;BME280;64294;49.176;16.626;2024-01-30T01:49:59;101232.72;;;0.98;86.67
75681;BME280;64294;49.176;16.626;2024-01-30T01:52:25;101230.41;;;0.93;86.71
75681;BME280;64294;49.176;16.626;2024-01-30T01:54:50;101228.31;;;1.00;86.09
75681;BME280;64294;49.176;16.626;2024-01-30T01:57:16;101224.19;;;0.88;86.51
75681;BME280;64294;49.176;16.626;2024-01-30T01:59:45;101217.78;;;0.91;86.34
75681;BME280;64294;49.176;16.626;2024-01-30T02:02:14;101216.50;;;0.76;85.99
75681;BME280;64294;49.176;16.626;2024-01-30T02:04:41;101224.94;;;0.89;85.98
75681;BME280;64294;49.176;16.626;2024-01-30T02:07:07;101223.03;;;0.86;86.21
75681;BME280;64294;49.176;16.626;2024-01-30T02:09:33;101220.28;;;0.86;86.26
75681;BME280;64294;49.176;16.626;2024-01-30T02:11:59;101228.16;;;0.87;85.65
75681;BME280;64294;49.176;16.626;2024-01-30T02:14:25;101236.09;;;0.85;86.40
75681;BME280;64294;49.176;16.626;2024-01-30T02:16:53;101229.78;;;0.85;86.41
75681;BME280;64294;49.176;16.626;2024-01-30T02:19:19;101226.84;;;0.72;86.40
75681;BME280;64294;49.176;16.626;2024-01-30T02:21:46;101220.25;;;0.66;87.15
75681;BME280;64294;49.176;16.626;2024-01-30T02:24:11;101224.31;;;0.81;87.30
75681;BME280;64294;49.176;16.626;2024-01-30T02:26:36;101227.47;;;0.60;87.70
75681;BME280;64294;49.176;16.626;2024-01-30T02:29:02;101222.22;;;0.66;88.52
75681;BME280;64294;49.176;16.626;2024-01-30T02:31:27;101217.84;;;0.68;87.24
75681;BME280;64294;49.176;16.626;2024-01-30T02:33:52;101230.53;;;0.66;87.43
75681;BME280;64294;49.176;16.626;2024-01-30T02:36:18;101222.41;;;0.78;86.43
75681;BME280;64294;49.176;16.626;2024-01-30T02:38:46;101224.06;;;0.72;86.91
75681;BME280;64294;49.176;16.626;2024-01-30T02:41:12;101220.59;;;0.68;87.95
75681;BME280;64294;49.176;16.626;2024-01-30T02:43:41;101223.88;;;0.63;87.88
75681;BME280;64294;49.176;16.626;2024-01-30T02:46:06;101221.94;;;0.60;87.62
75681;BME280;64294;49.176;16.626;2024-01-30T02:48:31;101223.19;;;0.55;86.58
75681;BME280;64294;49.176;16.626;2024-01-30T02:50:59;101220.03;;;0.57;87.13
75681;BME280;64294;49.176;16.626;2024-01-30T02:53:25;101220.50;;;0.52;87.61
75681;BME280;64294;49.176;16.626;2024-01-30T02:55:51;101222.69;;;0.41;87.42
75681;BME280;64294;49.176;16.626;2024-01-30T02:58:21;101221.75;;;0.47;87.58
75681;BME280;64294;49.176;16.626;2024-01-30T03:00:47;101221.88;;;0.64;88.61
75681;BME280;64294;49.176;16.626;2024-01-30T03:03:12;101207.47;;;0.72;87.51
75681;BME280;64294;49.176;16.626;2024-01-30T03:05:38;101214.22;;;0.71;88.22
75681;BME280;64294;49.176;16.626;2024-01-30T03:08:04;101214.50;;;0.57;92.33
75681;BME280;64294;49.176;16.626;2024-01-30T03:10:32;101216.78;;;0.82;92.68
75681;BME280;64294;49.176;16.626;2024-01-30T03:12:58;101211.41;;;0.95;92.46
75681;BME280;64294;49.176;16.626;2024-01-30T03:15:23;101204.31;;;0.94;93.13
75681;BME280;64294;49.176;16.626;2024-01-30T03:17:53;101210.91;;;1.19;93.15
75681;BME280;64294;49.176;16.626;2024-01-30T03:20:19;101208.00;;;1.07;94.50
75681;BME280;64294;49.176;16.626;2024-01-30T03:22:44;101212.56;;;1.17;94.69
75681;BME280;64294;49.176;16.626;2024-01-30T03:25:10;101206.50;;;1.02;96.78
75681;BME280;64294;49.176;16.626;2024-01-30T03:27:38;101212.47;;;1.20;96.03
75681;BME280;64294;49.176;16.626;2024-01-30T03:30:05;101203.44;;;1.36;95.08
75681;BME280;64294;49.176;16.626;2024-01-30T03:32:31;101208.13;;;1.39;95.91
75681;BME280;64294;49.176;16.626;2024-01-30T03:34:58;101196.03;;;1.49;94.82
75681;BME280;64294;49.176;16.626;2024-01-30T03:37:24;101193.53;;;1.55;93.84
75681;BME280;64294;49.176;16.626;2024-01-30T03:39:52;101197.03;;;1.39;94.38
75681;BME280;64294;49.176;16.626;2024-01-30T03:42:18;101194.94;;;1.63;92.84
75681;BME280;64294;49.176;16.626;2024-01-30T03:44:43;101199.56;;;1.86;91.50
75681;BME280;64294;49.176;16.626;2024-01-30T03:47:08;101191.25;;;1.86;90.46
75681;BME280;64294;49.176;16.626;2024-01-30T03:49:34;101192.44;;;2.01;90.16
75681;BME280;64294;49.176;16.626;2024-01-30T03:51:59;101193.50;;;1.91;89.49
75681;BME280;64294;49.176;16.626;2024-01-30T03:54:25;101192.09;;;1.83;91.48
75681;BME280;64294;49.176;16.626;2024-01-30T03:56:50;101188.88;;;1.85;90.25
75681;BME280;64294;49.176;16.626;2024-01-30T03:59:15;101190.22;;;1.96;89.45
75681;BME280;64294;49.176;16.626;2024-01-30T04:01:42;101192.09;;;1.83;90.11
75681;BME280;64294;49.176;16.626;2024-01-30T04:04:08;101194.72;;;2.06;89.04
75681;BME280;64294;49.176;16.626;2024-01-30T04:06:33;101193.50;;;1.91;88.95
75681;BME280;64294;49.176;16.626;2024-01-30T04:09:00;101196.25;;;1.75;91.22
75681;BME280;64294;49.176;16.626;2024-01-30T04:11:26;101200.94;;;1.78;90.24
75681;BME280;64294;49.176;16.626;2024-01-30T04:13:51;101197.31;;;1.97;89.04
75681;BME280;64294;49.176;16.626;2024-01-30T04:16:23;101191.75;;;1.81;89.71
75681;BME280;64294;49.176;16.626;2024-01-30T04:18:48;101191.56;;;1.72;89.85
75681;BME280;64294;49.176;16.626;2024-01-30T04:21:14;101185.00;;;1.98;89.80
75681;BME280;64294;49.176;16.626;2024-01-30T04:23:42;101185.19;;;2.07;89.66
75681;BME280;64294;49.176;16.626;2024-01-30T04:26:08;101188.03;;;2.04;89.06
75681;BME280;64294;49.176;16.626;2024-01-30T04:28:33;101187.53;;;2.09;87.67
75681;BME280;64294;49.176;16.626;2024-01-30T04:30:59;101184.56;;;2.16;86.53
75681;BME280;64294;49.176;16.626;2024-01-30T04:33:24;101182.75;;;2.09;86.33
75681;BME280;64294;49.176;16.626;2024-01-30T04:35:49;101180.44;;;2.08;86.25
75681;BME280;64294;49.176;16.626;2024-01-30T04:38:15;101186.81;;;2.21;85.22
75681;BME280;64294;49.176;16.626;2024-01-30T04:40:40;101188.22;;;2.29;84.71
75681;BME280;64294;49.176;16.626;2024-01-30T04:43:06;101190.81;;;2.20;84.77
75681;BME280;64294;49.176;16.626;2024-01-30T04:45:31;101194.78;;;2.03;85.37
75681;BME280;64294;49.176;16.626;2024-01-30T04:47:57;101190.22;;;2.12;84.72
75681;BME280;64294;49.176;16.626;2024-01-30T04:50:25;101194.63;;;1.94;85.28
75681;BME280;64294;49.176;16.626;2024-01-30T04:52:52;101181.84;;;1.28;88.94
75681;BME280;64294;49.176;16.626;2024-01-30T04:55:17;101190.50;;;1.49;89.67
75681;BME280;64294;49.176;16.626;2024-01-30T04:57:43;101196.84;;;1.82;87.38
75681;BME280;64294;49.176;16.626;2024-01-30T05:00:09;101197.25;;;1.65;87.46
75681;BME280;64294;49.176;16.626;2024-01-30T05:02:34;101197.53;;;1.54;89.71
75681;BME280;64294;49.176;16.626;2024-01-30T05:04:59;101195.13;;;1.72;89.14
75681;BME280;64294;49.176;16.626;2024-01-30T05:07:28;101201.81;;;1.91;87.40
75681;BME280;64294;49.176;16.626;2024-01-30T05:09:53;101204.56;;;1.75;84.91
75681;BME280;64294;49.176;16.626;2024-01-30T05:12:19;101205.19;;;1.82;82.93
75681;BME280;64294;49.176;16.626;2024-01-30T05:14:45;101209.13;;;1.65;82.78
75681;BME280;64294;49.176;16.626;2024-01-30T05:17:10;101201.63;;;1.46;84.64
75681;BME280;64294;49.176;16.626;2024-01-30T05:19:38;101211.97;;;1.06;85.47
75681;BME280;64294;49.176;16.626;2024-01-30T05:22:06;101210.84;;;0.83;87.42
75681;BME280;64294;49.176;16.626;2024-01-30T05:24:36;101204.25;;;0.97;86.27
75681;BME280;64294;49.176;16.626;2024-01-30T05:27:02;101208.06;;;1.03;85.10
75681;BME280;64294;49.176;16.626;2024-01-30T05:29:28;101205.28;;;1.23;84.43
75681;BME280;64294;49.176;16.626;2024-01-30T05:31:56;101207.78;;;0.78;86.61
75681;BME280;64294;49.176;16.626;2024-01-30T05:34:24;101206.31;;;0.93;86.94
75681;BME280;64294;49.176;16.626;2024-01-30T05:36:49;101206.31;;;1.13;84.10
75681;BME280;64294;49.176;16.626;2024-01-30T05:39:15;101212.91;;;1.19;82.98
75681;BME280;64294;49.176;16.626;2024-01-30T05:41:40;101202.38;;;1.10;82.78
75681;BME280;64294;49.176;16.626;2024-01-30T05:44:06;101214.91;;;0.99;83.32
75681;BME280;64294;49.176;16.626;2024-01-30T05:46:31;101204.94;;;0.81;83.37
75681;BME280;64294;49.176;16.626;2024-01-30T05:48:56;101211.84;;;0.93;83.63
75681;BME280;64294;49.176;16.626;2024-01-30T05:51:22;101212.97;;;0.96;83.15
75681;BME280;64294;49.176;16.626;2024-01-30T05:53:47;101212.25;;;0.91;83.31
75681;BME280;64294;49.176;16.626;2024-01-30T05:56:13;101219.31;;;0.96;83.04
75681;BME280;64294;49.176;16.626;2024-01-30T05:58:38;101213.03;;;0.92;83.50
75681;BME280;64294;49.176;16.626;2024-01-30T06:01:07;101213.94;;;0.85;83.81
75681;BME280;64294;49.176;16.626;2024-01-30T06:03:33;101218.28;;;0.86;83.42
75681;BME280;64294;49.176;16.626;2024-01-30T06:05:59;101215.78;;;0.92;83.55
75681;BME280;64294;49.176;16.626;2024-01-30T06:08:24;101213.94;;;0.85;83.95
75681;BME280;64294;49.176;16.626;2024-01-30T06:10:49;101214.63;;;0.93;84.91
75681;BME280;64294;49.176;16.626;2024-01-30T06:13:15;101215.94;;;1.05;85.46
75681;BME280;64294;49.176;16.626;2024-01-30T06:15:40;101216.53;;;0.96;88.28
75681;BME280;64294;49.176;16.626;2024-01-30T06:18:07;101215.41;;;1.13;86.94
75681;BME280;64294;49.176;16.626;2024-01-30T06:20:33;101216.81;;;1.02;88.59
75681;BME280;64294;49.176;16.626;2024-01-30T06:22:59;101212.19;;;1.15;87.30
75681;BME280;64294;49.176;16.626;2024-01-30T06:25:25;101221.34;;;1.32;87.30
75681;BME280;64294;49.176;16.626;2024-01-30T06:27:50;101219.63;;;1.38;86.89
75681;BME280;64294;49.176;16.626;2024-01-30T06:30:16;101215.22;;;1.40;86.67
75681;BME280;64294;49.176;16.626;2024-01-30T06:32:44;101212.97;;;1.35;86.85
75681;BME280;64294;49.176;16.626;2024-01-30T06:35:09;101219.09;;;1.63;85.17
75681;BME280;64294;49.176;16.626;2024-01-30T06:37:36;101222.38;;;1.58;84.00
75681;BME280;64294;49.176;16.626;2024-01-30T06:40:01;101223.75;;;1.66;83.86
75681;BME280;64294;49.176;16.626;2024-01-30T06:42:27;101222.56;;;1.67;83.23
75681;BME280;64294;49.176;16.626;2024-01-30T06:44:52;101221.31;;;1.88;84.39
75681;BME280;64294;49.176;16.626;2024-01-30T06:47:18;101229.22;;;2.05;83.79
75681;BME280;64294;49.176;16.626;2024-01-30T06:49:43;101228.28;;;2.28;83.08
75681;BME280;64294;49.176;16.626;2024-01-30T06:52:10;101226.03;;;2.85;82.97
75681;BME280;64294;49.176;16.626;2024-01-30T06:54:36;101234.69;;;3.57;79.98
75681;BME280;64294;49.176;16.626;2024-01-30T06:57:01;101235.13;;;4.32;75.61
75681;BME280;64294;49.176;16.626;2024-01-30T06:59:27;101234.38;;;5.75;68.02
75681;BME280;64294;49.176;16.626;2024-01-30T07:01:52;101228.75;;;7.38;62.05
75681;BME280;64294;49.176;16.626;2024-01-30T07:04:17;101231.03;;;8.66;57.61
75681;BME280;64294;49.176;16.626;2024-01-30T07:06:43;101227.69;;;8.92;54.73
75681;BME280;64294;49.176;16.626;2024-01-30T07:09:09;101225.09;;;9.71;53.46
75681;BME280;64294;49.176;16.626;2024-01-30T07:11:34;101219.16;;;10.19;50.50
75681;BME280;64294;49.176;16.626;2024-01-30T07:14:00;101223.88;;;11.03;50.33
75681;BME280;64294;49.176;16.626;2024-01-30T07:16:25;101223.94;;;11.61;46.80
75681;BME280;64294;49.176;16.626;2024-01-30T07:18:51;101232.69;;;12.31;45.47
75681;BME280;64294;49.176;16.626;2024-01-30T07:21:20;101241.31;;;13.36;44.80
75681;BME280;64294;49.176;16.626;2024-01-30T07:23:50;101241.25;;;14.64;40.93
75681;BME280;64294;49.176;16.626;2024-01-30T07:26:15;101234.84;;;15.63;39.89
75681;BME280;64294;49.176;16.626;2024-01-30T07:28:41;101232.31;;;15.89;37.71
75681;BME280;64294;49.176;16.626;2024-01-30T07:31:09;101242.94;;;15.83;37.56
75681;BME280;64294;49.176;16.626;2024-01-30T07:33:34;101234.94;;;17.04;35.46
75681;BME280;64294;49.176;16.626;2024-01-30T07:36:00;101237.94;;;17.81;33.86
75681;BME280;64294;49.176;16.626;2024-01-30T07:38:25;101244.88;;;17.85;33.13
75681;BME280;64294;49.176;16.626;2024-01-30T07:40:51;101241.72;;;17.01;33.15
75681;BME280;64294;49.176;16.626;2024-01-30T07:43:19;101242.03;;;17.85;32.46
75681;BME280;64294;49.176;16.626;2024-01-30T07:45:45;101238.31;;;17.40;33.48
75681;BME280;64294;49.176;16.626;2024-01-30T07:48:11;101235.66;;;18.38;33.44
75681;BME280;64294;49.176;16.626;2024-01-30T07:50:37;101243.06;;;19.20;31.68
75681;BME280;64294;49.176;16.626;2024-01-30T07:53:03;101248.25;;;19.98;29.79
75681;BME280;64294;49.176;16.626;2024-01-30T07:55:28;101234.69;;;19.90;29.51
75681;BME280;64294;49.176;16.626;2024-01-30T07:57:54;101244.03;;;19.23;29.52
75681;BME280;64294;49.176;16.626;2024-01-30T08:00:21;101243.22;;;18.75;30.10
75681;BME280;64294;49.176;16.626;2024-01-30T08:02:47;101237.84;;;20.29;28.73
75681;BME280;64294;49.176;16.626;2024-01-30T08:05:12;101242.19;;;20.01;28.57
75681;BME280;64294;49.176;16.626;2024-01-30T08:07:43;101243.88;;;22.23;27.20
75681;BME280;64294;49.176;16.626;2024-01-30T08:10:09;101251.94;;;21.27;27.43
75681;BME280;64294;49.176;16.626;2024-01-30T08:12:35;101252.03;;;22.72;25.40
75681;BME280;64294;49.176;16.626;2024-01-30T08:15:02;101239.88;;;21.95;26.27
75681;BME280;64294;49.176;16.626;2024-01-30T08:17:28;101244.06;;;22.10;25.81
75681;BME280;64294;49.176;16.626;2024-01-30T08:19:54;101253.69;;;19.20;28.93
75681;BME280;64294;49.176;16.626;2024-01-30T08:22:22;101249.75;;;17.72;31.63
75681;BME280;64294;49.176;16.626;2024-01-30T08:24:47;101252.41;;;19.08;30.03
75681;BME280;64294;49.176;16.626;2024-01-30T08:27:13;101254.63;;;20.89;27.79
75681;BME280;64294;49.176;16.626;2024-01-30T08:29:38;101254.59;;;18.22;29.90
75681;BME280;64294;49.176;16.626;2024-01-30T08:32:05;101256.16;;;19.02;29.45
75681;BME280;64294;49.176;16.626;2024-01-30T08:34:31;101262.91;;;14.56;35.70
75681;BME280;64294;49.176;16.626;2024-01-30T08:36:57;101252.59;;;15.69;34.87
75681;BME280;64294;49.176;16.626;2024-01-30T08:39:22;101246.69;;;17.70;32.32
75681;BME280;64294;49.176;16.626;2024-01-30T08:41:48;101256.38;;;17.05;32.50
75681;BME280;64294;49.176;16.626;2024-01-30T08:44:13;101249.56;;;13.56;38.99
75681;BME280;64294;49.176;16.626;2024-01-30T08:46:38;101244.84;;;16.78;33.24
75681;BME280;64294;49.176;16.626;2024-01-30T08:49:04;101245.13;;;15.25;35.28
75681;BME280;64294;49.176;16.626;2024-01-30T08:51:32;101249.34;;;17.62;31.80
75681;BME280;64294;49.176;16.626;2024-01-30T08:53:59;101254.16;;;17.16;32.49
75681;BME280;64294;49.176;16.626;2024-01-30T08:56:24;101253.75;;;17.95;32.28
75681;BME280;64294;49.176;16.626;2024-01-30T08:58:49;101250.75;;;17.74;32.76
75681;BME280;64294;49.176;16.626;2024-01-30T09:01:15;101256.03;;;15.04;34.79
75681;BME280;64294;49.176;16.626;2024-01-30T09:03:40;101256.59;;;16.39;33.25
75681;BME280;64294;49.176;16.626;2024-01-30T09:06:11;101255.44;;;17.72;32.28
75681;BME280;64294;49.176;16.626;2024-01-30T09:08:40;101255.41;;;19.36;30.40
75681;BME280;64294;49.176;16.626;2024-01-30T09:11:13;101258.63;;;18.13;31.30
75681;BME280;64294;49.176;16.626;2024-01-30T09:13:38;101244.63;;;19.97;29.21
75681;BME280;64294;49.176;16.626;2024-01-30T09:16:04;101251.06;;;16.95;32.28
75681;BME280;64294;49.176;16.626;2024-01-30T09:18:35;101255.25;;;18.94;30.93
75681;BME280;64294;49.176;16.626;2024-01-30T09:21:03;101251.97;;;18.24;31.48
75681;BME280;64294;49.176;16.626;2024-01-30T09:23:28;101244.75;;;18.89;29.77
75681;BME280;64294;49.176;16.626;2024-01-30T09:25:54;101262.69;;;16.73;33.00
75681;BME280;64294;49.176;16.626;2024-01-30T09:28:19;101263.47;;;14.04;37.06
75681;BME280;64294;49.176;16.626;2024-01-30T09:30:45;101246.56;;;14.96;36.28
75681;BME280;64294;49.176;16.626;2024-01-30T09:33:10;101246.00;;;16.40;34.65
75681;BME280;64294;49.176;16.626;2024-01-30T09:35:36;101249.25;;;17.87;31.68
75681;BME280;64294;49.176;16.626;2024-01-30T09:38:04;101246.13;;;18.16;31.56
75681;BME280;64294;49.176;16.626;2024-01-30T09:40:30;101248.34;;;16.35;33.63
75681;BME280;64294;49.176;16.626;2024-01-30T09:42:56;101256.69;;;18.61;31.32
75681;BME280;64294;49.176;16.626;2024-01-30T09:45:25;101257.56;;;18.43;30.75
75681;BME280;64294;49.176;16.626;2024-01-30T09:47:52;101250.19;;;19.14;29.58
75681;BME280;64294;49.176;16.626;2024-01-30T09:50:18;101256.59;;;17.44;31.81
75681;BME280;64294;49.176;16.626;2024-01-30T09:52:44;101245.94;;;18.54;30.71
75681;BME280;64294;49.176;16.626;2024-01-30T09:55:13;101237.88;;;20.57;28.00
75681;BME280;64294;49.176;16.626;2024-01-30T09:57:41;101242.00;;;19.44;29.52
75681;BME280;64294;49.176;16.626;2024-01-30T10:00:10;101241.75;;;20.67;28.33
75681;BME280;64294;49.176;16.626;2024-01-30T10:02:36;101242.31;;;19.06;29.55
75681;BME280;64294;49.176;16.626;2024-01-30T10:05:03;101244.53;;;18.48;30.67
75681;BME280;64294;49.176;16.626;2024-01-30T10:07:32;101235.44;;;17.77;32.14
75681;BME280;64294;49.176;16.626;2024-01-30T10:09:57;101236.84;;;19.09;30.61
75681;BME280;64294;49.176;16.626;2024-01-30T10:12:25;101229.06;;;20.83;28.01
75681;BME280;64294;49.176;16.626;2024-01-30T10:14:51;101227.66;;;20.69;27.86
75681;BME280;64294;49.176;16.626;2024-01-30T10:17:16;101228.13;;;18.80;29.32
75681;BME280;64294;49.176;16.626;2024-01-30T10:19:41;101218.41;;;17.91;30.35
75681;BME280;64294;49.176;16.626;2024-01-30T10:22:07;101215.16;;;20.88;28.04
75681;BME280;64294;49.176;16.626;2024-01-30T10:24:34;101215.34;;;19.76;28.86
75681;BME280;64294;49.176;16.626;2024-01-30T10:27:00;101210.09;;;20.37;28.12
75681;BME280;64294;49.176;16.626;2024-01-30T10:29:29;101208.75;;;22.22;26.54
75681;BME280;64294;49.176;16.626;2024-01-30T10:31:59;101215.22;;;18.66;30.01
75681;BME280;64294;49.176;16.626;2024-01-30T10:34:25;101209.88;;;17.91;30.95
75681;BME280;64294;49.176;16.626;2024-01-30T10:39:23;101195.03;;;18.24;30.60
75681;BME280;64294;49.176;16.626;2024-01-30T10:41:56;101202.59;;;15.96;33.88
75681;BME280;64294;49.176;16.626;2024-01-30T10:44:27;101189.28;;;19.03;29.64
75681;BME280;64294;49.176;16.626;2024-01-30T10:47:03;101189.28;;;17.02;31.70
75681;BME280;64294;49.176;16.626;2024-01-30T10:49:31;101186.47;;;17.66;31.58
75681;BME280;64294;49.176;16.626;2024-01-30T10:51:59;101178.16;;;18.39;31.11
75681;BME280;64294;49.176;16.626;2024-01-30T10:54:26;101181.59;;;17.15;31.82
75681;BME280;64294;49.176;16.626;2024-01-30T10:56:53;101182.09;;;17.33;32.22
75681;BME280;64294;49.176;16.626;2024-01-30T10:59:23;101172.09;;;16.51;33.73
75681;BME280;64294;49.176;16.626;2024-01-30T11:01:50;101180.44;;;16.43;33.31
75681;BME280;64294;49.176;16.626;2024-01-30T11:04:16;101173.63;;;16.76;32.15
75681;BME280;64294;49.176;16.626;2024-01-30T11:06:42;101166.59;;;17.34;31.65
75681;BME280;64294;49.176;16.626;2024-01-30T11:09:11;101151.91;;;15.57;34.51
75681;BME280;64294;49.176;16.626;2024-01-30T11:11:57;101154.91;;;16.43;33.62
75681;BME280;64294;49.176;16.626;2024-01-30T11:14:26;101150.72;;;19.02;30.74
75681;BME280;64294;49.176;16.626;2024-01-30T11:16:52;101153.00;;;18.04;31.30
75681;BME280;64294;49.176;16.626;2024-01-30T11:19:25;101151.78;;;18.65;30.49
75681;BME280;64294;49.176;16.626;2024-01-30T11:21:51;101151.56;;;16.63;33.75
75681;BME280;64294;49.176;16.626;2024-01-30T11:24:22;101140.31;;;20.17;29.28
75681;BME280;64294;49.176;16.626;2024-01-30T11:27:00;101150.28;;;19.53;29.67
75681;BME280;64294;49.176;16.626;2024-01-30T11:29:28;101140.81;;;17.45;32.69
75681;BME280;64294;49.176;16.626;2024-01-30T11:31:56;101144.56;;;18.38;31.07
75681;BME280;64294;49.176;16.626;2024-01-30T11:34:22;101135.53;;;19.21;29.82
75681;BME280;64294;49.176;16.626;2024-01-30T11:36:52;101136.94;;;19.98;28.02
75681;BME280;64294;49.176;16.626;2024-01-30T11:39:21;101124.91;;;19.63;29.65
75681;BME280;64294;49.176;16.626;2024-01-30T11:41:50;101122.88;;;20.64;27.93
75681;BME280;64294;49.176;16.626;2024-01-30T11:44:16;101125.19;;;17.83;31.75
75681;BME280;64294;49.176;16.626;2024-01-30T11:46:46;101118.66;;;17.24;32.64
75681;BME280;64294;49.176;16.626;2024-01-30T11:49:12;101120.63;;;18.07;31.88
75681;BME280;64294;49.176;16.626;2024-01-30T11:51:45;101116.81;;;17.27;32.74
75681;BME280;64294;49.176;16.626;2024-01-30T11:54:14;101121.91;;;15.07;36.54
75681;BME280;64294;49.176;16.626;2024-01-30T11:56:39;101111.75;;;15.83;35.01
75681;BME280;64294;49.176;16.626;2024-01-30T11:59:04;101115.28;;;16.94;33.17
75681;BME280;64294;49.176;16.626;2024-01-30T12:01:31;101112.47;;;18.37;31.47
75681;BME280;64294;49.176;16.626;2024-01-30T12:03:58;101102.16;;;17.55;32.79
75681;BME280;64294;49.176;16.626;2024-01-30T12:06:24;101105.50;;;17.72;32.03
75681;BME280;64294;49.176;16.626;2024-01-30T12:09:01;101108.75;;;16.99;33.61
75681;BME280;64294;49.176;16.626;2024-01-30T12:11:32;101100.81;;;18.75;31.22
75681;BME280;64294;49.176;16.626;2024-01-30T12:13:57;101101.53;;;16.60;34.05
75681;BME280;64294;49.176;16.626;2024-01-30T12:16:23;101091.50;;;18.01;31.79
75681;BME280;64294;49.176;16.626;2024-01-30T12:18:48;101093.63;;;16.91;33.44
75681;BME280;64294;49.176;16.626;2024-01-30T12:21:17;101082.13;;;17.47;32.99
75681;BME280;64294;49.176;16.626;2024-01-30T12:23:44;101085.03;;;17.29;33.26
75681;BME280;64294;49.176;16.626;2024-01-30T12:26:10;101086.00;;;15.81;34.83
75681;BME280;64294;49.176;16.626;2024-01-30T12:28:36;101080.88;;;18.01;32.33
75681;BME280;64294;49.176;16.626;2024-01-30T12:31:04;101072.38;;;19.87;29.99
75681;BME280;64294;49.176;16.626;2024-01-30T12:33:30;101086.41;;;16.52;33.87
75681;BME280;64294;49.176;16.626;2024-01-30T12:35:57;101073.25;;;14.73;36.49
75681;BME280;64294;49.176;16.626;2024-01-30T12:38:26;101068.31;;;15.44;35.69
75681;BME280;64294;49.176;16.626;2024-01-30T12:40:55;101065.88;;;13.95;39.05
75681;BME280;64294;49.176;16.626;2024-01-30T12:43:22;101062.69;;;16.12;36.03